sensor_id;sensor_type;location;lat;lon;timestamp;pressure;altitude;pressure_sealevel;temperature;humidity
44313;BME280;38833;51.142;-0.974;2024-01-30T00:01:33;100493.88;;;27.96;27.93
44313;BME280;38833;51.142;-0.974;2024-01-30T00:04:06;100502.36;;;27.99;27.88
44313;BME280;38833;51.142;-0.974;2024-01-30T00:06:40;100509.17;;;27.85;27.95
44313;BME280;38833;51.142;-0.974;2024-01-30T00:09:13;100521.41;;;28.00;27.81
44313;BME280;38833;51.142;-0.974;2024-01-30T00:11:46;100512.50;;;27.80;27.95
44313;BME280;38833;51.142;-0.974;2024-01-30T00:14:20;100511.71;;;27.87;27.90
44313;BME280;38833;51.142;-0.974;2024-01-30T00:16:53;100517.86;;;27.84;27.87
44313;BME280;38833;51.142;-0.974;2024-01-30T00:19:26;100507.46;;;27.83;27.85
44313;BME280;38833;51.142;-0.974;2024-01-30T00:21:59;100507.56;;;27.71;27.89
44313;BME280;38833;51.142;-0.974;2024-01-30T00:24:32;100500.58;;;27.87;27.92
44313;BME280;38833;51.142;-0.974;2024-01-30T00:27:06;100506.20;;;27.65;27.89
44313;BME280;38833;51.142;-0.974;2024-01-30T00:29:39;100498.85;;;27.55;27.94
44313;BME280;38833;51.142;-0.974;2024-01-30T00:32:12;100490.53;;;27.62;27.87
44313;BME280;38833;51.142;-0.974;2024-01-30T00:34:45;100492.55;;;27.84;27.88
44313;BME280;38833;51.142;-0.974;2024-01-30T00:37:19;100500.85;;;27.48;27.91
44313;BME280;38833;51.142;-0.974;2024-01-30T00:39:52;100495.32;;;27.40;27.95
44313;BME280;38833;51.142;-0.974;2024-01-30T00:42:25;100489.98;;;27.46;27.87
44313;BME280;38833;51.142;-0.974;2024-01-30T00:44:59;100493.76;;;27.30;28.02
44313;BME280;38833;51.142;-0.974;2024-01-30T00:47:32;100482.60;;;27.33;27.96
44313;BME280;38833;51.142;-0.974;2024-01-30T00:50:06;100471.83;;;27.31;27.92
44313;BME280;38833;51.142;-0.974;2024-01-30T00:52:40;100462.12;;;27.48;27.96
44313;BME280;38833;51.142;-0.974;2024-01-30T00:55:14;100470.13;;;27.27;27.90
44313;BME280;38833;51.142;-0.974;2024-01-30T00:57:47;100476.85;;;27.25;27.89
44313;BME280;38833;51.142;-0.974;2024-01-30T01:00:20;100485.18;;;27.51;27.89
44313;BME280;38833;51.142;-0.974;2024-01-30T01:02:54;100471.46;;;27.45;27.89
44313;BME280;38833;51.142;-0.974;2024-01-30T01:05:28;100461.44;;;27.09;27.95
44313;BME280;38833;51.142;-0.974;2024-01-30T01:08:01;100467.93;;;27.35;27.94
44313;BME280;38833;51.142;-0.974;2024-01-30T01:10:34;100459.82;;;27.34;27.91
44313;BME280;38833;51.142;-0.974;2024-01-30T01:13:08;100466.96;;;27.17;27.81
44313;BME280;38833;51.142;-0.974;2024-01-30T01:15:41;100464.40;;;27.32;27.88
44313;BME280;38833;51.142;-0.974;2024-01-30T01:18:14;100475.90;;;27.51;27.89
44313;BME280;38833;51.142;-0.974;2024-01-30T01:20:47;100467.26;;;27.47;27.86
44313;BME280;38833;51.142;-0.974;2024-01-30T01:23:21;100461.58;;;27.16;28.03
44313;BME280;38833;51.142;-0.974;2024-01-30T01:25:54;100467.68;;;27.04;27.77
44313;BME280;38833;51.142;-0.974;2024-01-30T01:28:27;100468.22;;;27.21;27.57
44313;BME280;38833;51.142;-0.974;2024-01-30T01:31:00;100453.73;;;27.67;27.54
44313;BME280;38833;51.142;-0.974;2024-01-30T01:33:34;100463.29;;;27.28;27.71
44313;BME280;38833;51.142;-0.974;2024-01-30T01:36:07;100481.38;;;27.22;27.72
44313;BME280;38833;51.142;-0.974;2024-01-30T01:38:40;100493.82;;;26.96;27.73
44313;BME280;38833;51.142;-0.974;2024-01-30T01:41:13;100490.13;;;27.42;27.74
44313;BME280;38833;51.142;-0.974;2024-01-30T01:43:47;100484.83;;;26.78;27.89
44313;BME280;38833;51.142;-0.974;2024-01-30T01:46:20;100490.54;;;27.41;27.72
44313;BME280;38833;51.142;-0.974;2024-01-30T01:48:53;100485.82;;;27.26;27.81
44313;BME280;38833;51.142;-0.974;2024-01-30T01:51:29;100506.29;;;27.23;27.79
44313;BME280;38833;51.142;-0.974;2024-01-30T01:54:05;100507.74;;;27.05;27.79
44313;BME280;38833;51.142;-0.974;2024-01-30T01:56:38;100506.48;;;27.22;27.77
44313;BME280;38833;51.142;-0.974;2024-01-30T01:59:12;100510.79;;;27.19;27.78
44313;BME280;38833;51.142;-0.974;2024-01-30T02:01:45;100520.23;;;26.85;27.88
44313;BME280;38833;51.142;-0.974;2024-01-30T02:04:19;100526.90;;;26.83;27.92
44313;BME280;38833;51.142;-0.974;2024-01-30T02:06:52;100520.66;;;27.04;27.85
44313;BME280;38833;51.142;-0.974;2024-01-30T02:09:25;100517.26;;;26.97;27.83
44313;BME280;38833;51.142;-0.974;2024-01-30T02:11:59;100520.50;;;27.18;27.88
44313;BME280;38833;51.142;-0.974;2024-01-30T02:14:32;100528.44;;;26.67;27.93
44313;BME280;38833;51.142;-0.974;2024-01-30T02:17:05;100539.18;;;26.84;27.97
44313;BME280;38833;51.142;-0.974;2024-01-30T02:19:39;100543.09;;;26.59;27.98
44313;BME280;38833;51.142;-0.974;2024-01-30T02:22:13;100546.79;;;26.57;27.99
44313;BME280;38833;51.142;-0.974;2024-01-30T02:24:46;100538.70;;;26.56;27.99
44313;BME280;38833;51.142;-0.974;2024-01-30T02:27:19;100536.77;;;26.65;28.10
44313;BME280;38833;51.142;-0.974;2024-01-30T02:29:53;100538.41;;;26.61;28.12
44313;BME280;38833;51.142;-0.974;2024-01-30T02:32:26;100533.98;;;26.33;28.19
44313;BME280;38833;51.142;-0.974;2024-01-30T02:35:00;100522.39;;;26.73;28.18
44313;BME280;38833;51.142;-0.974;2024-01-30T02:37:33;100524.07;;;26.57;28.06
44313;BME280;38833;51.142;-0.974;2024-01-30T02:40:07;100538.39;;;26.31;28.12
44313;BME280;38833;51.142;-0.974;2024-01-30T02:42:40;100538.27;;;26.70;28.18
44313;BME280;38833;51.142;-0.974;2024-01-30T02:45:14;100539.17;;;26.48;28.12
44313;BME280;38833;51.142;-0.974;2024-01-30T02:47:47;100547.70;;;26.65;28.16
44313;BME280;38833;51.142;-0.974;2024-01-30T02:50:20;100556.85;;;26.36;28.24
44313;BME280;38833;51.142;-0.974;2024-01-30T02:52:54;100556.02;;;26.44;28.11
44313;BME280;38833;51.142;-0.974;2024-01-30T02:55:27;100544.90;;;26.36;28.13
44313;BME280;38833;51.142;-0.974;2024-01-30T02:58:00;100534.17;;;26.53;28.19
44313;BME280;38833;51.142;-0.974;2024-01-30T03:00:33;100533.22;;;26.52;28.15
44313;BME280;38833;51.142;-0.974;2024-01-30T03:03:08;100547.02;;;26.40;28.27
44313;BME280;38833;51.142;-0.974;2024-01-30T03:05:41;100553.23;;;26.24;28.21
44313;BME280;38833;51.142;-0.974;2024-01-30T03:08:14;100560.11;;;26.25;28.14
44313;BME280;38833;51.142;-0.974;2024-01-30T03:10:47;100559.22;;;26.41;28.21
44313;BME280;38833;51.142;-0.974;2024-01-30T03:13:21;100552.33;;;26.14;28.23
44313;BME280;38833;51.142;-0.974;2024-01-30T03:15:54;100554.52;;;26.44;28.12
44313;BME280;38833;51.142;-0.974;2024-01-30T03:18:28;100554.54;;;26.31;28.23
44313;BME280;38833;51.142;-0.974;2024-01-30T03:21:01;100550.75;;;26.26;28.23
44313;BME280;38833;51.142;-0.974;2024-01-30T03:23:34;100548.37;;;26.34;28.16
44313;BME280;38833;51.142;-0.974;2024-01-30T03:26:07;100544.97;;;26.27;28.20
44313;BME280;38833;51.142;-0.974;2024-01-30T03:28:41;100551.80;;;26.27;28.15
44313;BME280;38833;51.142;-0.974;2024-01-30T03:31:15;100558.00;;;26.02;28.29
44313;BME280;38833;51.142;-0.974;2024-01-30T03:33:48;100559.01;;;26.14;28.24
44313;BME280;38833;51.142;-0.974;2024-01-30T03:36:22;100558.01;;;25.91;28.28
44313;BME280;38833;51.142;-0.974;2024-01-30T03:38:55;100561.76;;;25.97;28.22
44313;BME280;38833;51.142;-0.974;2024-01-30T03:41:28;100556.93;;;26.13;28.26
44313;BME280;38833;51.142;-0.974;2024-01-30T03:44:01;100554.97;;;26.07;28.26
44313;BME280;38833;51.142;-0.974;2024-01-30T03:46:35;100551.96;;;26.05;28.28
44313;BME280;38833;51.142;-0.974;2024-01-30T03:49:09;100563.51;;;26.00;28.32
44313;BME280;38833;51.142;-0.974;2024-01-30T03:51:42;100568.09;;;25.97;28.34
44313;BME280;38833;51.142;-0.974;2024-01-30T03:54:16;100564.19;;;26.04;28.31
44313;BME280;38833;51.142;-0.974;2024-01-30T03:56:49;100570.39;;;26.06;28.17
44313;BME280;38833;51.142;-0.974;2024-01-30T03:59:22;100577.26;;;25.96;28.26
44313;BME280;38833;51.142;-0.974;2024-01-30T04:01:57;100575.99;;;25.98;28.23
44313;BME280;38833;51.142;-0.974;2024-01-30T04:04:30;100580.12;;;25.92;28.31
44313;BME280;38833;51.142;-0.974;2024-01-30T04:07:03;100586.52;;;26.16;28.29
44313;BME280;38833;51.142;-0.974;2024-01-30T04:09:38;100592.57;;;25.88;28.27
44313;BME280;38833;51.142;-0.974;2024-01-30T04:12:11;100595.86;;;26.19;28.24
44313;BME280;38833;51.142;-0.974;2024-01-30T04:14:44;100596.18;;;25.87;28.28
44313;BME280;38833;51.142;-0.974;2024-01-30T04:17:18;100603.65;;;26.10;28.26
44313;BME280;38833;51.142;-0.974;2024-01-30T04:19:51;100611.48;;;25.82;28.33
44313;BME280;38833;51.142;-0.974;2024-01-30T04:22:25;100616.13;;;26.11;28.20
44313;BME280;38833;51.142;-0.974;2024-01-30T04:24:58;100614.17;;;25.86;28.17
44313;BME280;38833;51.142;-0.974;2024-01-30T04:27:31;100623.98;;;25.89;28.11
44313;BME280;38833;51.142;-0.974;2024-01-30T04:30:05;100628.22;;;25.79;28.28
44313;BME280;38833;51.142;-0.974;2024-01-30T04:32:39;100637.06;;;25.99;28.29
44313;BME280;38833;51.142;-0.974;2024-01-30T04:35:12;100638.90;;;25.99;28.29
44313;BME280;38833;51.142;-0.974;2024-01-30T04:37:45;100641.66;;;25.99;28.22
44313;BME280;38833;51.142;-0.974;2024-01-30T04:40:19;100647.08;;;25.95;28.31
44313;BME280;38833;51.142;-0.974;2024-01-30T04:42:52;100641.82;;;25.92;28.30
44313;BME280;38833;51.142;-0.974;2024-01-30T04:45:25;100649.77;;;25.86;28.38
44313;BME280;38833;51.142;-0.974;2024-01-30T04:47:58;100662.89;;;25.55;28.41
44313;BME280;38833;51.142;-0.974;2024-01-30T04:50:31;100668.32;;;25.52;28.38
44313;BME280;38833;51.142;-0.974;2024-01-30T04:53:05;100673.73;;;25.80;28.32
44313;BME280;38833;51.142;-0.974;2024-01-30T04:55:38;100669.52;;;25.71;28.40
44313;BME280;38833;51.142;-0.974;2024-01-30T04:58:11;100677.32;;;25.75;28.35
44313;BME280;38833;51.142;-0.974;2024-01-30T05:00:45;100683.89;;;25.76;28.35
44313;BME280;38833;51.142;-0.974;2024-01-30T05:03:18;100684.32;;;25.83;28.31
44313;BME280;38833;51.142;-0.974;2024-01-30T05:05:52;100680.73;;;25.75;28.39
44313;BME280;38833;51.142;-0.974;2024-01-30T05:08:25;100683.20;;;25.67;28.36
44313;BME280;38833;51.142;-0.974;2024-01-30T05:11:00;100687.92;;;25.63;28.38
44313;BME280;38833;51.142;-0.974;2024-01-30T05:13:33;100696.66;;;25.68;28.37
44313;BME280;38833;51.142;-0.974;2024-01-30T05:16:07;100697.93;;;25.57;28.42
44313;BME280;38833;51.142;-0.974;2024-01-30T05:18:40;100704.39;;;25.52;28.44
44313;BME280;38833;51.142;-0.974;2024-01-30T05:21:13;100709.49;;;25.52;28.45
44313;BME280;38833;51.142;-0.974;2024-01-30T05:23:46;100716.98;;;25.51;28.46
44313;BME280;38833;51.142;-0.974;2024-01-30T05:26:20;100722.29;;;25.57;28.42
44313;BME280;38833;51.142;-0.974;2024-01-30T05:28:53;100728.64;;;25.48;28.53
44313;BME280;38833;51.142;-0.974;2024-01-30T05:31:26;100732.70;;;25.58;28.55
44313;BME280;38833;51.142;-0.974;2024-01-30T05:33:59;100745.90;;;25.37;28.49
44313;BME280;38833;51.142;-0.974;2024-01-30T05:36:33;100757.58;;;25.39;28.44
44313;BME280;38833;51.142;-0.974;2024-01-30T05:39:06;100755.36;;;25.44;28.42
44313;BME280;38833;51.142;-0.974;2024-01-30T05:41:39;100749.64;;;25.48;28.40
44313;BME280;38833;51.142;-0.974;2024-01-30T05:44:13;100750.62;;;25.06;28.85
44313;BME280;38833;51.142;-0.974;2024-01-30T05:46:46;100756.97;;;24.70;29.34
44313;BME280;38833;51.142;-0.974;2024-01-30T05:49:19;100760.77;;;25.17;28.92
44313;BME280;38833;51.142;-0.974;2024-01-30T05:51:52;100757.10;;;25.39;28.81
44313;BME280;38833;51.142;-0.974;2024-01-30T05:54:26;100756.37;;;25.49;28.77
44313;BME280;38833;51.142;-0.974;2024-01-30T05:56:59;100752.01;;;25.90;28.61
44313;BME280;38833;51.142;-0.974;2024-01-30T05:59:32;100758.85;;;26.02;28.60
44313;BME280;38833;51.142;-0.974;2024-01-30T06:02:05;100762.88;;;25.97;28.55
44313;BME280;38833;51.142;-0.974;2024-01-30T06:04:38;100760.48;;;26.06;28.53
44313;BME280;38833;51.142;-0.974;2024-01-30T06:07:11;100775.54;;;25.95;28.69
44313;BME280;38833;51.142;-0.974;2024-01-30T06:09:45;100788.78;;;26.42;28.32
44313;BME280;38833;51.142;-0.974;2024-01-30T06:12:18;100792.83;;;26.26;28.52
44313;BME280;38833;51.142;-0.974;2024-01-30T06:14:52;100799.16;;;26.53;28.32
44313;BME280;38833;51.142;-0.974;2024-01-30T06:17:25;100800.31;;;26.54;28.09
44313;BME280;38833;51.142;-0.974;2024-01-30T06:19:58;100803.80;;;26.10;28.37
44313;BME280;38833;51.142;-0.974;2024-01-30T06:22:32;100803.32;;;26.71;28.09
44313;BME280;38833;51.142;-0.974;2024-01-30T06:25:05;100810.75;;;26.34;28.25
44313;BME280;38833;51.142;-0.974;2024-01-30T06:27:38;100817.95;;;26.64;28.01
44313;BME280;38833;51.142;-0.974;2024-01-30T06:30:12;100814.20;;;26.62;28.09
44313;BME280;38833;51.142;-0.974;2024-01-30T06:32:46;100816.75;;;26.70;28.03
44313;BME280;38833;51.142;-0.974;2024-01-30T06:35:19;100825.03;;;26.99;27.84
44313;BME280;38833;51.142;-0.974;2024-01-30T06:37:52;100841.42;;;26.72;27.93
44313;BME280;38833;51.142;-0.974;2024-01-30T06:40:26;100840.29;;;26.46;27.75
44313;BME280;38833;51.142;-0.974;2024-01-30T06:42:59;100834.18;;;27.35;27.39
44313;BME280;38833;51.142;-0.974;2024-01-30T06:45:32;100839.59;;;27.01;27.50
44313;BME280;38833;51.142;-0.974;2024-01-30T06:48:07;100844.20;;;27.30;27.52
44313;BME280;38833;51.142;-0.974;2024-01-30T06:50:40;100848.09;;;27.07;27.76
44313;BME280;38833;51.142;-0.974;2024-01-30T06:53:14;100857.74;;;27.33;27.79
44313;BME280;38833;51.142;-0.974;2024-01-30T06:55:47;100863.63;;;26.67;27.97
44313;BME280;38833;51.142;-0.974;2024-01-30T06:58:20;100868.97;;;26.88;27.79
44313;BME280;38833;51.142;-0.974;2024-01-30T07:00:54;100876.15;;;27.53;27.66
44313;BME280;38833;51.142;-0.974;2024-01-30T07:03:27;100885.35;;;27.12;27.86
44313;BME280;38833;51.142;-0.974;2024-01-30T07:06:00;100890.39;;;26.90;27.83
44313;BME280;38833;51.142;-0.974;2024-01-30T07:08:33;100891.89;;;26.90;27.83
44313;BME280;38833;51.142;-0.974;2024-01-30T07:11:07;100885.13;;;27.52;27.52
44313;BME280;38833;51.142;-0.974;2024-01-30T07:13:40;100895.34;;;27.25;27.51
44313;BME280;38833;51.142;-0.974;2024-01-30T07:16:13;100905.68;;;27.17;27.62
44313;BME280;38833;51.142;-0.974;2024-01-30T07:18:47;100919.39;;;26.64;28.15
44313;BME280;38833;51.142;-0.974;2024-01-30T07:21:20;100921.29;;;27.00;27.81
44313;BME280;38833;51.142;-0.974;2024-01-30T07:23:53;100918.57;;;27.13;27.70
44313;BME280;38833;51.142;-0.974;2024-01-30T07:26:26;100920.32;;;26.71;28.13
44313;BME280;38833;51.142;-0.974;2024-01-30T07:29:00;100921.95;;;27.23;27.87
44313;BME280;38833;51.142;-0.974;2024-01-30T07:31:33;100927.89;;;26.94;27.93
44313;BME280;38833;51.142;-0.974;2024-01-30T07:36:21;100937.40;;;27.46;27.67
44313;BME280;38833;51.142;-0.974;2024-01-30T07:38:55;100944.64;;;27.37;27.49
44313;BME280;38833;51.142;-0.974;2024-01-30T07:41:28;100948.18;;;27.13;27.79
44313;BME280;38833;51.142;-0.974;2024-01-30T07:44:02;100949.80;;;27.37;27.60
44313;BME280;38833;51.142;-0.974;2024-01-30T07:46:35;100951.06;;;27.14;27.82
44313;BME280;38833;51.142;-0.974;2024-01-30T07:49:08;100960.01;;;27.32;27.68
44313;BME280;38833;51.142;-0.974;2024-01-30T07:51:41;100962.63;;;27.19;27.80
44313;BME280;38833;51.142;-0.974;2024-01-30T07:54:15;100965.47;;;27.55;27.48
44313;BME280;38833;51.142;-0.974;2024-01-30T07:56:48;100967.99;;;27.31;27.94
44313;BME280;38833;51.142;-0.974;2024-01-30T07:59:21;100973.57;;;27.63;27.85
44313;BME280;38833;51.142;-0.974;2024-01-30T08:01:54;100980.14;;;27.20;27.82
44313;BME280;38833;51.142;-0.974;2024-01-30T08:04:28;100987.24;;;27.33;27.69
44313;BME280;38833;51.142;-0.974;2024-01-30T08:07:01;100990.35;;;27.37;27.62
44313;BME280;38833;51.142;-0.974;2024-01-30T08:09:34;100985.00;;;26.82;28.15
44313;BME280;38833;51.142;-0.974;2024-01-30T08:12:08;100991.59;;;26.98;27.99
44313;BME280;38833;51.142;-0.974;2024-01-30T08:14:41;100999.24;;;27.15;27.81
44313;BME280;38833;51.142;-0.974;2024-01-30T08:17:14;100998.20;;;27.08;27.86
44313;BME280;38833;51.142;-0.974;2024-01-30T08:19:47;101001.05;;;27.04;27.88
44313;BME280;38833;51.142;-0.974;2024-01-30T08:22:21;101006.80;;;27.30;27.61
44313;BME280;38833;51.142;-0.974;2024-01-30T08:24:54;101019.45;;;27.30;27.56
44313;BME280;38833;51.142;-0.974;2024-01-30T08:27:27;101023.81;;;27.37;27.47
44313;BME280;38833;51.142;-0.974;2024-01-30T08:30:00;101032.62;;;27.60;27.24
44313;BME280;38833;51.142;-0.974;2024-01-30T08:32:34;101036.05;;;27.77;27.06
44313;BME280;38833;51.142;-0.974;2024-01-30T08:35:07;101038.53;;;27.81;26.92
44313;BME280;38833;51.142;-0.974;2024-01-30T08:37:41;101034.34;;;27.73;27.06
44313;BME280;38833;51.142;-0.974;2024-01-30T08:40:14;101035.61;;;27.78;27.00
44313;BME280;38833;51.142;-0.974;2024-01-30T08:42:47;101033.43;;;27.67;27.08
44313;BME280;38833;51.142;-0.974;2024-01-30T08:45:21;101039.03;;;28.00;26.97
44313;BME280;38833;51.142;-0.974;2024-01-30T08:47:55;101045.90;;;27.96;26.97
44313;BME280;38833;51.142;-0.974;2024-01-30T08:50:28;101055.55;;;27.71;26.94
44313;BME280;38833;51.142;-0.974;2024-01-30T08:53:01;101061.08;;;27.50;27.06
44313;BME280;38833;51.142;-0.974;2024-01-30T08:55:34;101068.68;;;27.97;26.83
44313;BME280;38833;51.142;-0.974;2024-01-30T08:58:08;101064.89;;;27.51;26.99
44313;BME280;38833;51.142;-0.974;2024-01-30T09:00:41;101063.91;;;28.06;26.85
44313;BME280;38833;51.142;-0.974;2024-01-30T09:03:14;101070.55;;;27.81;27.10
44313;BME280;38833;51.142;-0.974;2024-01-30T09:05:48;101072.27;;;27.78;27.41
44313;BME280;38833;51.142;-0.974;2024-01-30T09:08:22;101078.31;;;27.71;27.66
44313;BME280;38833;51.142;-0.974;2024-01-30T09:10:55;101085.13;;;27.70;27.50
44313;BME280;38833;51.142;-0.974;2024-01-30T09:13:28;101090.22;;;27.87;27.56
44313;BME280;38833;51.142;-0.974;2024-01-30T09:16:01;101103.05;;;27.59;27.59
44313;BME280;38833;51.142;-0.974;2024-01-30T09:18:34;101103.55;;;27.76;27.64
44313;BME280;38833;51.142;-0.974;2024-01-30T09:21:08;101109.97;;;27.77;27.46
44313;BME280;38833;51.142;-0.974;2024-01-30T09:23:41;101117.98;;;27.50;27.69
44313;BME280;38833;51.142;-0.974;2024-01-30T09:26:14;101114.18;;;27.49;27.65
44313;BME280;38833;51.142;-0.974;2024-01-30T09:28:48;101122.03;;;27.29;27.68
44313;BME280;38833;51.142;-0.974;2024-01-30T09:31:21;101125.73;;;27.57;27.79
44313;BME280;38833;51.142;-0.974;2024-01-30T09:33:54;101132.60;;;27.53;27.66
44313;BME280;38833;51.142;-0.974;2024-01-30T09:36:27;101134.24;;;27.57;27.70
44313;BME280;38833;51.142;-0.974;2024-01-30T09:39:01;101133.81;;;27.48;27.80
44313;BME280;38833;51.142;-0.974;2024-01-30T09:41:40;101138.73;;;27.48;27.76
44313;BME280;38833;51.142;-0.974;2024-01-30T09:44:18;101141.68;;;27.47;27.75
44313;BME280;38833;51.142;-0.974;2024-01-30T09:46:53;101146.70;;;27.43;27.76
44313;BME280;38833;51.142;-0.974;2024-01-30T09:49:26;101147.67;;;27.22;27.72
44313;BME280;38833;51.142;-0.974;2024-01-30T09:52:00;101146.87;;;27.42;27.68
44313;BME280;38833;51.142;-0.974;2024-01-30T09:54:34;101153.57;;;27.47;27.59
44313;BME280;38833;51.142;-0.974;2024-01-30T09:57:08;101158.46;;;27.48;27.61
44313;BME280;38833;51.142;-0.974;2024-01-30T09:59:42;101166.14;;;27.54;27.64
44313;BME280;38833;51.142;-0.974;2024-01-30T10:02:16;101168.51;;;27.53;27.55
44313;BME280;38833;51.142;-0.974;2024-01-30T10:04:51;101178.63;;;27.18;27.77
44313;BME280;38833;51.142;-0.974;2024-01-30T10:07:25;101185.44;;;27.49;27.61
44313;BME280;38833;51.142;-0.974;2024-01-30T10:09:58;101191.31;;;27.44;27.76
44313;BME280;38833;51.142;-0.974;2024-01-30T10:12:31;101197.01;;;27.46;27.62
44313;BME280;38833;51.142;-0.974;2024-01-30T10:15:07;101204.02;;;27.73;27.77
44313;BME280;38833;51.142;-0.974;2024-01-30T10:17:41;101218.06;;;27.25;27.61
44313;BME280;38833;51.142;-0.974;2024-01-30T10:20:14;101220.59;;;27.37;27.62
44313;BME280;38833;51.142;-0.974;2024-01-30T10:22:47;101222.87;;;27.35;27.61
44313;BME280;38833;51.142;-0.974;2024-01-30T10:25:21;101220.99;;;26.99;27.72
44313;BME280;38833;51.142;-0.974;2024-01-30T10:27:55;101226.34;;;27.11;27.70
44313;BME280;38833;51.142;-0.974;2024-01-30T10:30:28;101231.88;;;27.69;27.58
44313;BME280;38833;51.142;-0.974;2024-01-30T10:33:02;101234.54;;;27.06;27.67
44313;BME280;38833;51.142;-0.974;2024-01-30T10:35:35;101235.62;;;27.44;27.65
44313;BME280;38833;51.142;-0.974;2024-01-30T10:38:12;101238.37;;;27.19;27.68
44313;BME280;38833;51.142;-0.974;2024-01-30T10:40:48;101243.52;;;27.20;27.62
44313;BME280;38833;51.142;-0.974;2024-01-30T10:43:35;101242.71;;;27.35;27.66
44313;BME280;38833;51.142;-0.974;2024-01-30T10:46:14;101243.11;;;27.05;27.75
44313;BME280;38833;51.142;-0.974;2024-01-30T10:48:57;101246.74;;;27.14;27.68
44313;BME280;38833;51.142;-0.974;2024-01-30T10:51:31;101258.44;;;27.29;27.82
44313;BME280;38833;51.142;-0.974;2024-01-30T10:54:05;101264.78;;;27.26;27.72
44313;BME280;38833;51.142;-0.974;2024-01-30T10:56:40;101270.78;;;26.98;27.75
44313;BME280;38833;51.142;-0.974;2024-01-30T10:59:15;101279.65;;;27.00;27.74
44313;BME280;38833;51.142;-0.974;2024-01-30T11:01:48;101283.69;;;26.94;27.78
44313;BME280;38833;51.142;-0.974;2024-01-30T11:04:21;101291.09;;;27.12;27.81
44313;BME280;38833;51.142;-0.974;2024-01-30T11:06:54;101290.95;;;26.74;27.95
44313;BME280;38833;51.142;-0.974;2024-01-30T11:09:29;101292.45;;;26.78;28.17
44313;BME280;38833;51.142;-0.974;2024-01-30T11:12:03;101290.46;;;26.88;28.04
44313;BME280;38833;51.142;-0.974;2024-01-30T11:14:38;101290.70;;;27.08;27.91
44313;BME280;38833;51.142;-0.974;2024-01-30T11:17:11;101296.46;;;26.92;27.88
44313;BME280;38833;51.142;-0.974;2024-01-30T11:19:46;101300.60;;;27.20;27.74
44313;BME280;38833;51.142;-0.974;2024-01-30T11:22:20;101302.65;;;27.18;27.76
44313;BME280;38833;51.142;-0.974;2024-01-30T11:24:53;101302.40;;;26.62;28.22
44313;BME280;38833;51.142;-0.974;2024-01-30T11:27:28;101301.07;;;26.62;28.64
44313;BME280;38833;51.142;-0.974;2024-01-30T11:30:02;101308.72;;;26.70;28.77
44313;BME280;38833;51.142;-0.974;2024-01-30T11:32:36;101312.18;;;26.90;28.80
44313;BME280;38833;51.142;-0.974;2024-01-30T11:35:11;101313.55;;;26.97;28.91
44313;BME280;38833;51.142;-0.974;2024-01-30T11:37:45;101311.46;;;26.99;29.20
44313;BME280;38833;51.142;-0.974;2024-01-30T11:40:19;101312.68;;;27.04;29.34
44313;BME280;38833;51.142;-0.974;2024-01-30T11:42:53;101313.68;;;26.97;29.47
44313;BME280;38833;51.142;-0.974;2024-01-30T11:45:28;101314.60;;;26.85;29.71
44313;BME280;38833;51.142;-0.974;2024-01-30T11:48:01;101320.37;;;26.94;29.60
44313;BME280;38833;51.142;-0.974;2024-01-30T11:50:35;101318.90;;;26.95;29.90
44313;BME280;38833;51.142;-0.974;2024-01-30T11:53:11;101326.41;;;26.89;30.07
44313;BME280;38833;51.142;-0.974;2024-01-30T11:55:50;101326.89;;;27.30;29.91
44313;BME280;38833;51.142;-0.974;2024-01-30T11:58:25;101322.66;;;26.99;30.04
44313;BME280;38833;51.142;-0.974;2024-01-30T12:00:58;101322.78;;;26.99;29.99
44313;BME280;38833;51.142;-0.974;2024-01-30T12:03:32;101330.68;;;27.03;30.01
44313;BME280;38833;51.142;-0.974;2024-01-30T12:06:05;101334.75;;;27.05;29.66
44313;BME280;38833;51.142;-0.974;2024-01-30T12:08:39;101339.31;;;27.37;28.10
44313;BME280;38833;51.142;-0.974;2024-01-30T12:11:12;101336.02;;;26.95;27.88
44313;BME280;38833;51.142;-0.974;2024-01-30T12:13:45;101335.71;;;27.23;27.91
44313;BME280;38833;51.142;-0.974;2024-01-30T12:16:19;101335.55;;;26.88;27.87
44313;BME280;38833;51.142;-0.974;2024-01-30T12:19:00;101327.56;;;26.78;27.87
44313;BME280;38833;51.142;-0.974;2024-01-30T12:21:34;101332.52;;;26.50;27.89
44313;BME280;38833;51.142;-0.974;2024-01-30T12:24:07;101335.96;;;26.57;27.89
44313;BME280;38833;51.142;-0.974;2024-01-30T12:26:41;101339.48;;;27.22;27.68
44313;BME280;38833;51.142;-0.974;2024-01-30T12:29:15;101343.58;;;26.88;27.72
44313;BME280;38833;51.142;-0.974;2024-01-30T12:31:48;101344.97;;;26.68;27.71
44313;BME280;38833;51.142;-0.974;2024-01-30T12:34:21;101356.27;;;26.89;27.70
44313;BME280;38833;51.142;-0.974;2024-01-30T12:36:55;101362.12;;;27.08;27.68
44313;BME280;38833;51.142;-0.974;2024-01-30T12:39:28;101364.39;;;26.69;27.68
44313;BME280;38833;51.142;-0.974;2024-01-30T12:42:02;101362.40;;;27.06;27.70
44313;BME280;38833;51.142;-0.974;2024-01-30T12:44:36;101369.65;;;27.05;27.63
44313;BME280;38833;51.142;-0.974;2024-01-30T12:47:09;101372.79;;;27.08;27.66
44313;BME280;38833;51.142;-0.974;2024-01-30T12:49:43;101370.80;;;26.82;27.58
44313;BME280;38833;51.142;-0.974;2024-01-30T12:52:16;101373.23;;;26.76;27.61
44313;BME280;38833;51.142;-0.974;2024-01-30T12:54:50;101376.92;;;26.51;27.69
44313;BME280;38833;51.142;-0.974;2024-01-30T12:57:24;101377.33;;;26.41;27.69
44313;BME280;38833;51.142;-0.974;2024-01-30T12:59:57;101375.74;;;26.66;27.63
44313;BME280;38833;51.142;-0.974;2024-01-30T13:02:31;101377.35;;;26.59;27.70
44313;BME280;38833;51.142;-0.974;2024-01-30T13:05:04;101380.43;;;26.86;27.71
44313;BME280;38833;51.142;-0.974;2024-01-30T13:07:38;101380.92;;;26.61;27.65
44313;BME280;38833;51.142;-0.974;2024-01-30T13:10:11;101381.13;;;26.61;27.62
44313;BME280;38833;51.142;-0.974;2024-01-30T13:12:44;101383.49;;;26.85;27.61
44313;BME280;38833;51.142;-0.974;2024-01-30T13:15:17;101384.82;;;26.58;27.63